Terminal Aerodrome Forecast
Issued by NWS

Home | Current Version | Previous Version | Text Only | Print | Product List | Glossary On
Versions: 1 2 3 4 5 6 7 8 9 10 11 12 13 14
000
FTUS45 KTFX 011129
TAFHLN
TAF
KHLN 011129Z 0112/0212 VRB04KT P6SM SKC
     FM011900 29011KT P6SM SCT120
     FM020400 VRB05KT P6SM SKC=

USA.gov is the U.S. government's official web portal to all federal, state and local government web resources and services.